sensor_id;sensor_type;location;lat;lon;timestamp;temperature;humidity
21246;DHT22;10781;50.928;4.440;2022-10-31T00:02:07;16.00;99.90
21246;DHT22;10781;50.928;4.440;2022-10-31T00:04:32;16.10;99.90
21246;DHT22;10781;50.928;4.440;2022-10-31T00:06:58;16.30;99.90
21246;DHT22;10781;50.928;4.440;2022-10-31T00:09:23;16.00;99.90
21246;DHT22;10781;50.928;4.440;2022-10-31T00:11:49;15.90;99.90
21246;DHT22;10781;50.928;4.440;2022-10-31T00:14:14;15.90;99.90
21246;DHT22;10781;50.928;4.440;2022-10-31T00:16:40;15.90;99.90
21246;DHT22;10781;50.928;4.440;2022-10-31T00:19:08;15.70;99.90
21246;DHT22;10781;50.928;4.440;2022-10-31T00:21:35;15.70;99.90
21246;DHT22;10781;50.928;4.440;2022-10-31T00:24:01;15.70;99.90
21246;DHT22;10781;50.928;4.440;2022-10-31T00:26:28;15.70;99.90
21246;DHT22;10781;50.928;4.440;2022-10-31T00:28:53;15.90;99.90
21246;DHT22;10781;50.928;4.440;2022-10-31T00:31:19;16.00;99.90
21246;DHT22;10781;50.928;4.440;2022-10-31T00:33:45;16.00;99.90
21246;DHT22;10781;50.928;4.440;2022-10-31T00:36:13;16.10;99.90
21246;DHT22;10781;50.928;4.440;2022-10-31T00:38:40;16.20;99.90
21246;DHT22;10781;50.928;4.440;2022-10-31T00:41:05;16.10;99.90
21246;DHT22;10781;50.928;4.440;2022-10-31T00:43:31;15.70;99.90
21246;DHT22;10781;50.928;4.440;2022-10-31T00:45:57;15.40;99.90
21246;DHT22;10781;50.928;4.440;2022-10-31T00:48:22;15.60;99.90
21246;DHT22;10781;50.928;4.440;2022-10-31T00:50:48;15.70;99.90
21246;DHT22;10781;50.928;4.440;2022-10-31T00:53:14;15.80;99.90
21246;DHT22;10781;50.928;4.440;2022-10-31T00:55:39;15.80;99.90
21246;DHT22;10781;50.928;4.440;2022-10-31T00:58:05;15.70;99.90
21246;DHT22;10781;50.928;4.440;2022-10-31T01:00:30;15.50;99.90
21246;DHT22;10781;50.928;4.440;2022-10-31T01:02:56;15.40;99.90
21246;DHT22;10781;50.928;4.440;2022-10-31T01:05:21;15.30;99.90
21246;DHT22;10781;50.928;4.440;2022-10-31T01:07:47;15.30;99.90
21246;DHT22;10781;50.928;4.440;2022-10-31T01:10:13;15.20;99.90
21246;DHT22;10781;50.928;4.440;2022-10-31T01:12:40;15.20;99.90
21246;DHT22;10781;50.928;4.440;2022-10-31T01:15:07;15.20;99.90
21246;DHT22;10781;50.928;4.440;2022-10-31T01:17:33;15.10;99.90
21246;DHT22;10781;50.928;4.440;2022-10-31T01:19:58;15.00;99.90
21246;DHT22;10781;50.928;4.440;2022-10-31T01:22:24;15.00;99.90
21246;DHT22;10781;50.928;4.440;2022-10-31T01:24:49;15.10;99.90
21246;DHT22;10781;50.928;4.440;2022-10-31T01:27:15;15.00;99.90
21246;DHT22;10781;50.928;4.440;2022-10-31T01:29:41;14.80;99.90
21246;DHT22;10781;50.928;4.440;2022-10-31T01:32:06;14.70;99.90
21246;DHT22;10781;50.928;4.440;2022-10-31T01:34:32;14.60;99.90
21246;DHT22;10781;50.928;4.440;2022-10-31T01:36:57;14.50;99.90
21246;DHT22;10781;50.928;4.440;2022-10-31T01:39:23;14.50;99.90
21246;DHT22;10781;50.928;4.440;2022-10-31T01:41:51;14.40;99.90
21246;DHT22;10781;50.928;4.440;2022-10-31T01:49:59;14.90;99.90
21246;DHT22;10781;50.928;4.440;2022-10-31T01:54:43;14.80;99.90
21246;DHT22;10781;50.928;4.440;2022-10-31T01:57:12;15.00;99.90
21246;DHT22;10781;50.928;4.440;2022-10-31T01:59:46;15.00;99.90
21246;DHT22;10781;50.928;4.440;2022-10-31T02:02:13;14.90;99.90
21246;DHT22;10781;50.928;4.440;2022-10-31T02:04:40;14.90;99.90
21246;DHT22;10781;50.928;4.440;2022-10-31T02:07:13;14.90;99.90
21246;DHT22;10781;50.928;4.440;2022-10-31T02:09:40;15.00;99.90
21246;DHT22;10781;50.928;4.440;2022-10-31T02:12:09;15.10;99.90
21246;DHT22;10781;50.928;4.440;2022-10-31T02:14:37;15.00;99.90
21246;DHT22;10781;50.928;4.440;2022-10-31T02:17:04;14.80;99.90
21246;DHT22;10781;50.928;4.440;2022-10-31T02:19:56;14.40;99.90
21246;DHT22;10781;50.928;4.440;2022-10-31T02:22:26;14.20;99.90
21246;DHT22;10781;50.928;4.440;2022-10-31T02:30:14;14.50;99.90
21246;DHT22;10781;50.928;4.440;2022-10-31T02:33:02;14.50;99.90
21246;DHT22;10781;50.928;4.440;2022-10-31T02:35:52;14.60;99.90
21246;DHT22;10781;50.928;4.440;2022-10-31T02:39:05;14.40;99.90
21246;DHT22;10781;50.928;4.440;2022-10-31T02:49:07;14.30;99.90
21246;DHT22;10781;50.928;4.440;2022-10-31T02:51:35;14.50;99.90
21246;DHT22;10781;50.928;4.440;2022-10-31T02:54:01;14.60;99.90
21246;DHT22;10781;50.928;4.440;2022-10-31T02:56:26;14.70;99.90
21246;DHT22;10781;50.928;4.440;2022-10-31T02:58:59;14.70;99.90
21246;DHT22;10781;50.928;4.440;2022-10-31T03:01:29;14.50;99.90
21246;DHT22;10781;50.928;4.440;2022-10-31T03:06:59;13.90;99.90
21246;DHT22;10781;50.928;4.440;2022-10-31T03:12:31;13.80;99.90
21246;DHT22;10781;50.928;4.440;2022-10-31T03:20:37;13.60;99.90
21246;DHT22;10781;50.928;4.440;2022-10-31T03:23:05;13.50;99.90
21246;DHT22;10781;50.928;4.440;2022-10-31T03:25:32;13.60;99.90
21246;DHT22;10781;50.928;4.440;2022-10-31T03:28:01;13.60;99.90
21246;DHT22;10781;50.928;4.440;2022-10-31T03:30:27;13.60;99.90
21246;DHT22;10781;50.928;4.440;2022-10-31T03:32:55;13.80;99.90
21246;DHT22;10781;50.928;4.440;2022-10-31T03:35:24;13.80;99.90
21246;DHT22;10781;50.928;4.440;2022-10-31T03:37:53;13.80;99.90
21246;DHT22;10781;50.928;4.440;2022-10-31T03:40:21;14.00;99.90
21246;DHT22;10781;50.928;4.440;2022-10-31T03:42:58;13.70;99.90
21246;DHT22;10781;50.928;4.440;2022-10-31T03:45:28;13.60;99.90
21246;DHT22;10781;50.928;4.440;2022-10-31T03:47:57;13.70;99.90
21246;DHT22;10781;50.928;4.440;2022-10-31T03:50:25;13.80;99.90
21246;DHT22;10781;50.928;4.440;2022-10-31T03:53:05;14.00;99.90
21246;DHT22;10781;50.928;4.440;2022-10-31T03:58:08;14.00;99.90
21246;DHT22;10781;50.928;4.440;2022-10-31T04:00:37;14.00;99.90
21246;DHT22;10781;50.928;4.440;2022-10-31T04:03:17;14.10;99.90
21246;DHT22;10781;50.928;4.440;2022-10-31T04:05:46;14.10;99.90
21246;DHT22;10781;50.928;4.440;2022-10-31T04:08:17;14.10;99.90
21246;DHT22;10781;50.928;4.440;2022-10-31T04:10:46;14.20;99.90
21246;DHT22;10781;50.928;4.440;2022-10-31T04:13:17;14.00;99.90
21246;DHT22;10781;50.928;4.440;2022-10-31T04:15:45;14.00;99.90
21246;DHT22;10781;50.928;4.440;2022-10-31T04:18:12;14.10;99.90
21246;DHT22;10781;50.928;4.440;2022-10-31T04:20:39;14.30;99.90
21246;DHT22;10781;50.928;4.440;2022-10-31T04:23:22;14.30;99.90
21246;DHT22;10781;50.928;4.440;2022-10-31T04:25:48;14.00;99.90
21246;DHT22;10781;50.928;4.440;2022-10-31T04:28:14;13.80;99.90
21246;DHT22;10781;50.928;4.440;2022-10-31T04:30:39;13.60;99.90
21246;DHT22;10781;50.928;4.440;2022-10-31T04:33:05;13.40;99.90
21246;DHT22;10781;50.928;4.440;2022-10-31T04:35:31;13.20;99.90
21246;DHT22;10781;50.928;4.440;2022-10-31T04:37:56;13.10;99.90
21246;DHT22;10781;50.928;4.440;2022-10-31T04:40:22;13.30;99.90
21246;DHT22;10781;50.928;4.440;2022-10-31T04:42:47;13.50;99.90
21246;DHT22;10781;50.928;4.440;2022-10-31T04:45:13;13.70;99.90
21246;DHT22;10781;50.928;4.440;2022-10-31T04:47:39;13.80;99.90
21246;DHT22;10781;50.928;4.440;2022-10-31T04:50:05;14.00;99.90
21246;DHT22;10781;50.928;4.440;2022-10-31T04:52:30;13.90;99.90
21246;DHT22;10781;50.928;4.440;2022-10-31T04:54:56;13.70;99.90
21246;DHT22;10781;50.928;4.440;2022-10-31T04:57:22;13.80;99.90
21246;DHT22;10781;50.928;4.440;2022-10-31T04:59:47;13.70;99.90
21246;DHT22;10781;50.928;4.440;2022-10-31T05:02:13;13.70;99.90
21246;DHT22;10781;50.928;4.440;2022-10-31T05:04:38;13.40;99.90
21246;DHT22;10781;50.928;4.440;2022-10-31T05:07:04;13.30;99.90
21246;DHT22;10781;50.928;4.440;2022-10-31T05:09:30;13.00;99.90
21246;DHT22;10781;50.928;4.440;2022-10-31T05:11:55;12.90;99.90
21246;DHT22;10781;50.928;4.440;2022-10-31T05:14:21;12.90;99.90
21246;DHT22;10781;50.928;4.440;2022-10-31T05:16:46;12.90;99.90
21246;DHT22;10781;50.928;4.440;2022-10-31T05:19:12;13.20;99.90
21246;DHT22;10781;50.928;4.440;2022-10-31T05:21:38;13.60;99.90
21246;DHT22;10781;50.928;4.440;2022-10-31T05:24:03;13.80;99.90
21246;DHT22;10781;50.928;4.440;2022-10-31T05:26:29;14.00;99.90
21246;DHT22;10781;50.928;4.440;2022-10-31T05:28:55;14.00;99.90
21246;DHT22;10781;50.928;4.440;2022-10-31T05:31:20;14.20;99.90
21246;DHT22;10781;50.928;4.440;2022-10-31T05:33:46;14.40;99.90
21246;DHT22;10781;50.928;4.440;2022-10-31T05:36:11;14.40;99.90
21246;DHT22;10781;50.928;4.440;2022-10-31T05:38:37;14.40;99.90
21246;DHT22;10781;50.928;4.440;2022-10-31T05:41:03;14.40;99.90
21246;DHT22;10781;50.928;4.440;2022-10-31T05:43:29;14.30;99.90
21246;DHT22;10781;50.928;4.440;2022-10-31T05:45:55;14.10;99.90
21246;DHT22;10781;50.928;4.440;2022-10-31T05:48:21;14.00;99.90
21246;DHT22;10781;50.928;4.440;2022-10-31T05:50:48;14.00;99.90
21246;DHT22;10781;50.928;4.440;2022-10-31T05:53:14;14.00;99.90
21246;DHT22;10781;50.928;4.440;2022-10-31T05:55:41;14.00;99.90
21246;DHT22;10781;50.928;4.440;2022-10-31T05:58:07;14.20;99.90
21246;DHT22;10781;50.928;4.440;2022-10-31T06:00:33;14.30;99.90
21246;DHT22;10781;50.928;4.440;2022-10-31T06:03:06;14.30;99.90
21246;DHT22;10781;50.928;4.440;2022-10-31T06:05:32;14.40;99.90
21246;DHT22;10781;50.928;4.440;2022-10-31T06:07:58;14.60;99.90
21246;DHT22;10781;50.928;4.440;2022-10-31T06:10:24;14.50;99.90
21246;DHT22;10781;50.928;4.440;2022-10-31T06:12:50;14.00;99.90
21246;DHT22;10781;50.928;4.440;2022-10-31T06:15:16;13.80;99.90
21246;DHT22;10781;50.928;4.440;2022-10-31T06:17:43;13.90;99.90
21246;DHT22;10781;50.928;4.440;2022-10-31T06:20:09;14.00;99.90
21246;DHT22;10781;50.928;4.440;2022-10-31T06:22:34;13.90;99.90
21246;DHT22;10781;50.928;4.440;2022-10-31T06:25:00;14.20;99.90
21246;DHT22;10781;50.928;4.440;2022-10-31T06:27:26;14.50;99.90
21246;DHT22;10781;50.928;4.440;2022-10-31T06:29:52;14.50;99.90
21246;DHT22;10781;50.928;4.440;2022-10-31T06:32:18;14.50;99.90
21246;DHT22;10781;50.928;4.440;2022-10-31T06:34:44;14.40;99.90
21246;DHT22;10781;50.928;4.440;2022-10-31T06:37:13;14.60;99.90
21246;DHT22;10781;50.928;4.440;2022-10-31T06:39:39;14.80;99.90
21246;DHT22;10781;50.928;4.440;2022-10-31T06:42:05;14.70;99.90
21246;DHT22;10781;50.928;4.440;2022-10-31T06:44:31;14.70;99.90
21246;DHT22;10781;50.928;4.440;2022-10-31T06:46:57;14.50;99.90
21246;DHT22;10781;50.928;4.440;2022-10-31T06:49:23;14.30;99.90
21246;DHT22;10781;50.928;4.440;2022-10-31T06:51:49;14.10;99.90
21246;DHT22;10781;50.928;4.440;2022-10-31T06:54:15;14.10;99.90
21246;DHT22;10781;50.928;4.440;2022-10-31T06:56:41;14.30;99.90
21246;DHT22;10781;50.928;4.440;2022-10-31T06:59:06;14.30;99.90
21246;DHT22;10781;50.928;4.440;2022-10-31T07:01:32;14.30;99.90
21246;DHT22;10781;50.928;4.440;2022-10-31T07:03:58;14.10;99.90
21246;DHT22;10781;50.928;4.440;2022-10-31T07:06:24;14.10;99.90
21246;DHT22;10781;50.928;4.440;2022-10-31T07:08:49;14.20;99.90
21246;DHT22;10781;50.928;4.440;2022-10-31T07:11:15;14.40;99.90
21246;DHT22;10781;50.928;4.440;2022-10-31T07:13:40;14.60;99.90
21246;DHT22;10781;50.928;4.440;2022-10-31T07:16:07;14.70;99.90
21246;DHT22;10781;50.928;4.440;2022-10-31T07:18:33;14.70;99.90
21246;DHT22;10781;50.928;4.440;2022-10-31T07:20:59;14.90;99.90
21246;DHT22;10781;50.928;4.440;2022-10-31T07:23:25;15.20;99.90
21246;DHT22;10781;50.928;4.440;2022-10-31T07:25:57;15.40;99.90
21246;DHT22;10781;50.928;4.440;2022-10-31T07:28:24;15.60;99.90
21246;DHT22;10781;50.928;4.440;2022-10-31T07:30:51;15.70;99.90
21246;DHT22;10781;50.928;4.440;2022-10-31T07:33:17;15.80;99.90
21246;DHT22;10781;50.928;4.440;2022-10-31T07:35:42;15.90;99.90
21246;DHT22;10781;50.928;4.440;2022-10-31T07:38:11;15.70;99.90
21246;DHT22;10781;50.928;4.440;2022-10-31T07:40:36;15.30;99.90
21246;DHT22;10781;50.928;4.440;2022-10-31T07:43:02;15.10;99.90
21246;DHT22;10781;50.928;4.440;2022-10-31T07:45:28;15.00;99.90
21246;DHT22;10781;50.928;4.440;2022-10-31T07:47:53;14.80;99.90
21246;DHT22;10781;50.928;4.440;2022-10-31T07:50:25;14.70;99.90
21246;DHT22;10781;50.928;4.440;2022-10-31T07:53:10;14.80;99.90
21246;DHT22;10781;50.928;4.440;2022-10-31T07:55:37;14.80;99.90
21246;DHT22;10781;50.928;4.440;2022-10-31T07:58:08;15.00;99.90
21246;DHT22;10781;50.928;4.440;2022-10-31T08:00:34;15.10;99.90
21246;DHT22;10781;50.928;4.440;2022-10-31T08:03:14;15.40;99.90
21246;DHT22;10781;50.928;4.440;2022-10-31T08:05:40;15.60;99.90
21246;DHT22;10781;50.928;4.440;2022-10-31T08:08:11;15.80;99.90
21246;DHT22;10781;50.928;4.440;2022-10-31T08:10:37;15.90;99.90
21246;DHT22;10781;50.928;4.440;2022-10-31T08:13:05;16.10;99.90
21246;DHT22;10781;50.928;4.440;2022-10-31T08:15:31;16.00;99.90
21246;DHT22;10781;50.928;4.440;2022-10-31T08:17:57;15.70;99.90
21246;DHT22;10781;50.928;4.440;2022-10-31T08:20:23;15.50;99.90
21246;DHT22;10781;50.928;4.440;2022-10-31T08:23:09;15.40;99.90
21246;DHT22;10781;50.928;4.440;2022-10-31T08:25:35;15.30;99.90
21246;DHT22;10781;50.928;4.440;2022-10-31T08:28:02;15.40;99.90
21246;DHT22;10781;50.928;4.440;2022-10-31T08:30:30;15.40;99.90
21246;DHT22;10781;50.928;4.440;2022-10-31T08:33:10;15.30;99.90
21246;DHT22;10781;50.928;4.440;2022-10-31T08:35:36;15.30;99.90
21246;DHT22;10781;50.928;4.440;2022-10-31T08:38:02;15.30;99.90
21246;DHT22;10781;50.928;4.440;2022-10-31T08:40:30;15.40;99.90
21246;DHT22;10781;50.928;4.440;2022-10-31T08:43:04;15.60;99.90
21246;DHT22;10781;50.928;4.440;2022-10-31T08:45:31;15.70;99.90
21246;DHT22;10781;50.928;4.440;2022-10-31T08:48:02;15.50;99.90
21246;DHT22;10781;50.928;4.440;2022-10-31T08:50:30;15.40;99.90
21246;DHT22;10781;50.928;4.440;2022-10-31T08:53:19;15.50;99.90
21246;DHT22;10781;50.928;4.440;2022-10-31T08:55:46;15.50;99.90
21246;DHT22;10781;50.928;4.440;2022-10-31T08:58:14;15.50;99.90
21246;DHT22;10781;50.928;4.440;2022-10-31T09:00:41;15.50;99.90
21246;DHT22;10781;50.928;4.440;2022-10-31T09:03:15;15.50;99.90
21246;DHT22;10781;50.928;4.440;2022-10-31T09:05:41;15.40;99.90
21246;DHT22;10781;50.928;4.440;2022-10-31T09:08:08;15.40;99.90
21246;DHT22;10781;50.928;4.440;2022-10-31T09:10:35;15.20;99.90
21246;DHT22;10781;50.928;4.440;2022-10-31T09:13:10;15.10;99.90
21246;DHT22;10781;50.928;4.440;2022-10-31T09:15:38;15.10;99.90
21246;DHT22;10781;50.928;4.440;2022-10-31T09:18:05;15.00;99.90
21246;DHT22;10781;50.928;4.440;2022-10-31T09:20:32;15.00;99.90
21246;DHT22;10781;50.928;4.440;2022-10-31T09:22:59;15.00;99.90
21246;DHT22;10781;50.928;4.440;2022-10-31T09:25:26;15.20;99.90
21246;DHT22;10781;50.928;4.440;2022-10-31T09:28:05;15.30;99.90
21246;DHT22;10781;50.928;4.440;2022-10-31T09:30:33;15.30;99.90
21246;DHT22;10781;50.928;4.440;2022-10-31T09:33:01;15.40;99.90
21246;DHT22;10781;50.928;4.440;2022-10-31T09:35:28;15.60;99.90
21246;DHT22;10781;50.928;4.440;2022-10-31T09:38:05;15.80;99.90
21246;DHT22;10781;50.928;4.440;2022-10-31T09:40:36;16.00;99.90
21246;DHT22;10781;50.928;4.440;2022-10-31T09:49:13;16.60;99.90
21246;DHT22;10781;50.928;4.440;2022-10-31T09:52:29;16.60;99.90
21246;DHT22;10781;50.928;4.440;2022-10-31T09:54:42;16.30;99.90
21246;DHT22;10781;50.928;4.440;2022-10-31T09:57:13;16.20;99.90
21246;DHT22;10781;50.928;4.440;2022-10-31T09:59:41;16.50;99.90
21246;DHT22;10781;50.928;4.440;2022-10-31T10:02:21;16.50;99.90
21246;DHT22;10781;50.928;4.440;2022-10-31T10:05:10;16.70;99.90
21246;DHT22;10781;50.928;4.440;2022-10-31T10:08:03;16.60;99.90
21246;DHT22;10781;50.928;4.440;2022-10-31T10:10:53;16.80;99.90
21246;DHT22;10781;50.928;4.440;2022-10-31T10:13:38;17.20;99.90
21246;DHT22;10781;50.928;4.440;2022-10-31T10:22:26;17.40;99.90
21246;DHT22;10781;50.928;4.440;2022-10-31T10:30:18;17.20;99.90
21246;DHT22;10781;50.928;4.440;2022-10-31T10:32:58;17.20;99.90
21246;DHT22;10781;50.928;4.440;2022-10-31T10:35:33;17.50;99.90
21246;DHT22;10781;50.928;4.440;2022-10-31T10:38:08;17.50;99.90
21246;DHT22;10781;50.928;4.440;2022-10-31T10:40:35;17.40;99.90
21246;DHT22;10781;50.928;4.440;2022-10-31T10:43:22;17.40;99.90
21246;DHT22;10781;50.928;4.440;2022-10-31T10:49:15;17.50;99.90
21246;DHT22;10781;50.928;4.440;2022-10-31T11:00:00;17.60;99.90
21246;DHT22;10781;50.928;4.440;2022-10-31T11:02:30;18.00;99.90
21246;DHT22;10781;50.928;4.440;2022-10-31T11:05:01;18.00;99.90
21246;DHT22;10781;50.928;4.440;2022-10-31T11:07:38;18.10;99.90
21246;DHT22;10781;50.928;4.440;2022-10-31T11:10:13;18.30;99.90
21246;DHT22;10781;50.928;4.440;2022-10-31T11:12:43;18.70;99.90
21246;DHT22;10781;50.928;4.440;2022-10-31T11:15:23;19.00;99.90
21246;DHT22;10781;50.928;4.440;2022-10-31T11:17:51;19.00;99.90
21246;DHT22;10781;50.928;4.440;2022-10-31T11:22:44;19.70;99.90
21246;DHT22;10781;50.928;4.440;2022-10-31T11:28:04;19.50;99.90
21246;DHT22;10781;50.928;4.440;2022-10-31T11:30:42;19.60;99.90
21246;DHT22;10781;50.928;4.440;2022-10-31T11:33:32;20.00;99.90
21246;DHT22;10781;50.928;4.440;2022-10-31T11:36:01;20.00;99.90
21246;DHT22;10781;50.928;4.440;2022-10-31T11:38:35;19.80;99.90
21246;DHT22;10781;50.928;4.440;2022-10-31T11:41:40;19.70;99.90
21246;DHT22;10781;50.928;4.440;2022-10-31T11:46:48;19.80;99.90
21246;DHT22;10781;50.928;4.440;2022-10-31T11:51:43;19.50;99.90
21246;DHT22;10781;50.928;4.440;2022-10-31T11:54:28;19.40;99.90
21246;DHT22;10781;50.928;4.440;2022-10-31T11:56:55;19.30;99.90
21246;DHT22;10781;50.928;4.440;2022-10-31T12:01:54;19.40;99.90
21246;DHT22;10781;50.928;4.440;2022-10-31T12:04:29;19.50;99.90
21246;DHT22;10781;50.928;4.440;2022-10-31T12:06:57;19.70;99.90
21246;DHT22;10781;50.928;4.440;2022-10-31T12:09:27;19.90;99.90
21246;DHT22;10781;50.928;4.440;2022-10-31T12:14:51;20.40;99.90
21246;DHT22;10781;50.928;4.440;2022-10-31T12:17:55;20.30;99.90
21246;DHT22;10781;50.928;4.440;2022-10-31T12:23:33;20.90;99.90
21246;DHT22;10781;50.928;4.440;2022-10-31T12:26:28;21.10;99.90
21246;DHT22;10781;50.928;4.440;2022-10-31T12:29:17;21.70;99.90
21246;DHT22;10781;50.928;4.440;2022-10-31T12:32:03;21.80;99.90
21246;DHT22;10781;50.928;4.440;2022-10-31T12:37:22;21.10;99.90
21246;DHT22;10781;50.928;4.440;2022-10-31T12:39:58;20.90;99.90
21246;DHT22;10781;50.928;4.440;2022-10-31T12:56:26;20.90;99.90
21246;DHT22;10781;50.928;4.440;2022-10-31T12:59:01;21.00;99.90
21246;DHT22;10781;50.928;4.440;2022-10-31T13:01:37;21.10;99.90
21246;DHT22;10781;50.928;4.440;2022-10-31T13:06:59;21.20;99.90
21246;DHT22;10781;50.928;4.440;2022-10-31T13:09:48;21.30;99.90
21246;DHT22;10781;50.928;4.440;2022-10-31T13:12:17;21.00;99.90
21246;DHT22;10781;50.928;4.440;2022-10-31T13:14:59;21.00;99.90
21246;DHT22;10781;50.928;4.440;2022-10-31T13:17:41;20.90;99.90
21246;DHT22;10781;50.928;4.440;2022-10-31T13:20:27;21.10;99.90
21246;DHT22;10781;50.928;4.440;2022-10-31T13:23:05;21.00;99.90
21246;DHT22;10781;50.928;4.440;2022-10-31T13:25:38;21.10;99.90
21246;DHT22;10781;50.928;4.440;2022-10-31T13:28:20;21.20;99.90
21246;DHT22;10781;50.928;4.440;2022-10-31T13:30:49;20.70;99.90
21246;DHT22;10781;50.928;4.440;2022-10-31T13:33:24;20.70;99.90
21246;DHT22;10781;50.928;4.440;2022-10-31T13:36:25;20.60;99.90
21246;DHT22;10781;50.928;4.440;2022-10-31T13:38:56;20.60;99.90
21246;DHT22;10781;50.928;4.440;2022-10-31T13:41:44;20.50;99.90
21246;DHT22;10781;50.928;4.440;2022-10-31T13:44:27;20.40;99.90
21246;DHT22;10781;50.928;4.440;2022-10-31T13:46:55;20.40;99.90
21246;DHT22;10781;50.928;4.440;2022-10-31T13:54:39;20.30;99.90
21246;DHT22;10781;50.928;4.440;2022-10-31T13:59:56;20.40;99.90
21246;DHT22;10781;50.928;4.440;2022-10-31T14:02:35;20.40;99.90
21246;DHT22;10781;50.928;4.440;2022-10-31T14:05:16;20.40;99.90
21246;DHT22;10781;50.928;4.440;2022-10-31T14:07:45;20.30;99.90
21246;DHT22;10781;50.928;4.440;2022-10-31T14:12:50;20.30;99.90
21246;DHT22;10781;50.928;4.440;2022-10-31T14:15:24;20.20;99.90
21246;DHT22;10781;50.928;4.440;2022-10-31T14:18:00;20.30;99.90
21246;DHT22;10781;50.928;4.440;2022-10-31T14:20:33;20.20;99.90
21246;DHT22;10781;50.928;4.440;2022-10-31T14:23:11;20.30;99.90
21246;DHT22;10781;50.928;4.440;2022-10-31T14:25:37;20.30;99.90
21246;DHT22;10781;50.928;4.440;2022-10-31T14:28:31;20.40;99.90
21246;DHT22;10781;50.928;4.440;2022-10-31T14:30:59;20.50;99.90
21246;DHT22;10781;50.928;4.440;2022-10-31T14:33:30;20.40;99.90
21246;DHT22;10781;50.928;4.440;2022-10-31T14:39:00;20.50;99.90
21246;DHT22;10781;50.928;4.440;2022-10-31T14:41:33;20.30;99.90
21246;DHT22;10781;50.928;4.440;2022-10-31T14:44:21;20.40;99.90
21246;DHT22;10781;50.928;4.440;2022-10-31T14:47:01;20.30;99.90
21246;DHT22;10781;50.928;4.440;2022-10-31T14:50:08;20.40;99.90
21246;DHT22;10781;50.928;4.440;2022-10-31T14:52:36;20.30;99.90
21246;DHT22;10781;50.928;4.440;2022-10-31T14:55:06;20.30;99.90
21246;DHT22;10781;50.928;4.440;2022-10-31T14:57:34;20.40;99.90
21246;DHT22;10781;50.928;4.440;2022-10-31T15:00:05;20.20;99.90
21246;DHT22;10781;50.928;4.440;2022-10-31T15:05:42;19.90;99.90
21246;DHT22;10781;50.928;4.440;2022-10-31T15:08:35;19.80;99.90
21246;DHT22;10781;50.928;4.440;2022-10-31T15:11:06;19.80;99.90
21246;DHT22;10781;50.928;4.440;2022-10-31T15:13:34;19.80;99.90
21246;DHT22;10781;50.928;4.440;2022-10-31T15:16:00;19.70;99.90
21246;DHT22;10781;50.928;4.440;2022-10-31T15:18:27;19.70;99.90
21246;DHT22;10781;50.928;4.440;2022-10-31T15:20:54;19.70;99.90
21246;DHT22;10781;50.928;4.440;2022-10-31T15:23:26;19.80;99.90
21246;DHT22;10781;50.928;4.440;2022-10-31T15:26:00;19.70;99.90
21246;DHT22;10781;50.928;4.440;2022-10-31T15:28:26;19.60;99.90
21246;DHT22;10781;50.928;4.440;2022-10-31T15:30:54;19.20;99.90
21246;DHT22;10781;50.928;4.440;2022-10-31T15:33:24;19.30;99.90
21246;DHT22;10781;50.928;4.440;2022-10-31T15:36:20;19.20;99.90
21246;DHT22;10781;50.928;4.440;2022-10-31T15:38:46;19.20;99.90
21246;DHT22;10781;50.928;4.440;2022-10-31T15:44:15;19.20;99.90
21246;DHT22;10781;50.928;4.440;2022-10-31T15:46:42;19.30;99.90
21246;DHT22;10781;50.928;4.440;2022-10-31T15:49:26;19.10;99.90
21246;DHT22;10781;50.928;4.440;2022-10-31T15:51:52;19.10;99.90
21246;DHT22;10781;50.928;4.440;2022-10-31T15:54:18;19.00;99.90
21246;DHT22;10781;50.928;4.440;2022-10-31T15:56:43;19.00;99.90
21246;DHT22;10781;50.928;4.440;2022-10-31T15:59:19;19.10;99.90
21246;DHT22;10781;50.928;4.440;2022-10-31T16:02:00;19.10;99.90
21246;DHT22;10781;50.928;4.440;2022-10-31T16:04:26;19.00;99.90
21246;DHT22;10781;50.928;4.440;2022-10-31T16:06:59;18.80;99.90
21246;DHT22;10781;50.928;4.440;2022-10-31T16:09:26;18.80;99.90
21246;DHT22;10781;50.928;4.440;2022-10-31T16:11:51;18.60;99.90
21246;DHT22;10781;50.928;4.440;2022-10-31T16:14:22;18.30;99.90
21246;DHT22;10781;50.928;4.440;2022-10-31T16:16:52;18.40;99.90
21246;DHT22;10781;50.928;4.440;2022-10-31T16:19:23;18.30;99.90
21246;DHT22;10781;50.928;4.440;2022-10-31T16:21:52;18.20;99.90
21246;DHT22;10781;50.928;4.440;2022-10-31T16:24:28;18.20;99.90
21246;DHT22;10781;50.928;4.440;2022-10-31T16:27:05;18.20;99.90
21246;DHT22;10781;50.928;4.440;2022-10-31T16:29:43;17.90;99.90
21246;DHT22;10781;50.928;4.440;2022-10-31T16:32:36;17.90;99.90
21246;DHT22;10781;50.928;4.440;2022-10-31T16:37:37;17.50;99.90
21246;DHT22;10781;50.928;4.440;2022-10-31T16:40:03;17.50;99.90
21246;DHT22;10781;50.928;4.440;2022-10-31T16:42:29;17.40;99.90
21246;DHT22;10781;50.928;4.440;2022-10-31T16:44:55;17.40;99.90
21246;DHT22;10781;50.928;4.440;2022-10-31T16:47:21;17.30;99.90
21246;DHT22;10781;50.928;4.440;2022-10-31T16:49:48;17.20;99.90
21246;DHT22;10781;50.928;4.440;2022-10-31T16:52:14;17.10;99.90
21246;DHT22;10781;50.928;4.440;2022-10-31T16:54:40;17.20;99.90
21246;DHT22;10781;50.928;4.440;2022-10-31T16:57:06;17.10;99.90
21246;DHT22;10781;50.928;4.440;2022-10-31T16:59:36;17.00;99.90
21246;DHT22;10781;50.928;4.440;2022-10-31T17:02:03;17.00;99.90
21246;DHT22;10781;50.928;4.440;2022-10-31T17:04:29;17.00;99.90
21246;DHT22;10781;50.928;4.440;2022-10-31T17:06:54;17.00;99.90
21246;DHT22;10781;50.928;4.440;2022-10-31T17:09:20;17.10;99.90
21246;DHT22;10781;50.928;4.440;2022-10-31T17:11:48;17.10;99.90
21246;DHT22;10781;50.928;4.440;2022-10-31T17:14:14;17.10;99.90
21246;DHT22;10781;50.928;4.440;2022-10-31T17:16:40;17.10;99.90
21246;DHT22;10781;50.928;4.440;2022-10-31T17:19:09;17.10;99.90
21246;DHT22;10781;50.928;4.440;2022-10-31T17:21:36;17.20;99.90
21246;DHT22;10781;50.928;4.440;2022-10-31T17:24:02;17.30;99.90
21246;DHT22;10781;50.928;4.440;2022-10-31T17:26:27;17.10;99.90
21246;DHT22;10781;50.928;4.440;2022-10-31T17:28:53;17.10;99.90
21246;DHT22;10781;50.928;4.440;2022-10-31T17:31:29;17.10;99.90
21246;DHT22;10781;50.928;4.440;2022-10-31T17:33:56;17.10;99.90
21246;DHT22;10781;50.928;4.440;2022-10-31T17:36:22;17.10;99.90
21246;DHT22;10781;50.928;4.440;2022-10-31T17:38:48;17.00;99.90
21246;DHT22;10781;50.928;4.440;2022-10-31T17:41:13;16.80;99.90
21246;DHT22;10781;50.928;4.440;2022-10-31T17:43:39;16.70;99.90
21246;DHT22;10781;50.928;4.440;2022-10-31T17:46:05;16.70;99.90
21246;DHT22;10781;50.928;4.440;2022-10-31T17:48:35;16.70;99.90
21246;DHT22;10781;50.928;4.440;2022-10-31T17:51:04;16.70;99.90
21246;DHT22;10781;50.928;4.440;2022-10-31T17:53:31;16.60;99.90
21246;DHT22;10781;50.928;4.440;2022-10-31T17:56:05;16.60;99.90